Time;durP1;ratioP1;P1;durP2;ratioP2;P2;SDS_P1;SDS_P2;PMS_P1;PMS_P2;Temp;Humidity;BMP_temperature;BMP_pressure;BME280_temperature;BME280_humidity;BME280_pressure;Samples;Min_cycle;Max_cycle;Signal;HPM_P1;HPM_P2
2021/04/03 00:00:59;;;;;;;29.17;5.95;;;5.40;89.00;;;;;;5084801;28;20807;-79
2021/04/03 00:03:26;;;;;;;16.75;4.28;;;5.40;88.70;;;;;;5069008;28;20038;-79
2021/04/03 00:05:52;;;;;;;19.88;3.63;;;5.50;88.70;;;;;;5079017;28;20052;-79
2021/04/03 00:08:22;;;;;;;26.73;4.22;;;5.50;88.70;;;;;;5067267;28;20565;-78
2021/04/03 00:10:50;;;;;;;17.13;3.05;;;5.50;88.90;;;;;;5077555;28;20125;-78
2021/04/03 00:13:19;;;;;;;21.58;3.45;;;5.50;88.90;;;;;;5069447;28;20036;-78
2021/04/03 00:15:45;;;;;;;24.67;3.83;;;5.50;88.80;;;;;;5080652;28;20194;-78
2021/04/03 00:18:15;;;;;;;24.23;3.30;;;5.50;88.90;;;;;;5076005;28;20051;-79
2021/04/03 00:20:42;;;;;;;25.67;3.15;;;5.60;88.90;;;;;;5072193;28;20036;-79
2021/04/03 00:23:09;;;;;;;23.63;5.18;;;5.60;89.00;;;;;;5072882;28;20044;-79
2021/04/03 00:25:35;;;;;;;28.05;4.03;;;5.60;89.10;;;;;;5073249;28;20043;-78
2021/04/03 00:28:00;;;;;;;27.25;4.53;;;5.60;89.10;;;;;;5071435;28;20433;-78
2021/04/03 00:30:27;;;;;;;30.40;4.47;;;5.60;88.90;;;;;;5068255;28;20036;-78
2021/04/03 00:32:58;;;;;;;24.38;4.35;;;5.70;89.10;;;;;;5076286;28;20109;-78
2021/04/03 00:35:29;;;;;;;22.80;4.72;;;5.70;89.10;;;;;;5076445;28;20039;-78
2021/04/03 00:37:56;;;;;;;24.08;4.50;;;5.60;89.20;;;;;;5071081;28;20047;-78
2021/04/03 00:40:28;;;;;;;31.17;5.32;;;5.60;89.20;;;;;;5070436;28;20036;-78
2021/04/03 00:42:56;;;;;;;28.73;4.60;;;5.50;89.90;;;;;;5081998;28;20039;-78
2021/04/03 00:45:22;;;;;;;27.77;4.22;;;5.50;89.70;;;;;;5072535;28;20044;-78
2021/04/03 00:47:49;;;;;;;26.00;4.82;;;5.40;89.70;;;;;;5072412;28;20133;-78
2021/04/03 00:50:21;;;;;;;26.35;4.43;;;5.30;90.10;;;;;;5068851;28;20043;-79
2021/04/03 00:52:47;;;;;;;26.52;4.78;;;5.30;90.30;;;;;;5080549;28;20055;-79
2021/04/03 00:55:15;;;;;;;25.40;4.57;;;5.20;90.40;;;;;;5065794;28;20037;-79
2021/04/03 00:57:41;;;;;;;24.23;4.32;;;5.20;90.60;;;;;;5074894;28;20045;-78
2021/04/03 01:00:09;;;;;;;33.10;5.50;;;5.10;90.70;;;;;;5071513;28;20480;-78
2021/04/03 01:02:36;;;;;;;26.25;4.35;;;5.10;90.70;;;;;;5074215;28;20472;-78
2021/04/03 01:05:12;;;;;;;27.30;4.75;;;5.00;90.90;;;;;;5074289;28;20036;-78
2021/04/03 01:07:39;;;;;;;29.23;4.13;;;4.90;91.00;;;;;;5071780;28;20203;-78
2021/04/03 01:10:06;;;;;;;30.65;4.75;;;4.90;91.20;;;;;;5071737;28;20042;-78
2021/04/03 01:12:57;;;;;;;35.15;5.53;;;4.80;91.30;;;;;;5076592;28;20090;-78
2021/04/03 01:15:45;;;;;;;28.45;4.03;;;4.80;91.70;;;;;;5088032;28;20068;-78
2021/04/03 01:18:20;;;;;;;28.92;5.28;;;4.70;91.60;;;;;;5078455;28;20044;-78
2021/04/03 01:20:51;;;;;;;;;;;4.60;91.60;;;;;;5068451;28;20045;-78
2021/04/03 01:23:36;;;;;;;30.65;6.28;;;4.50;92.50;;;;;;5076073;28;19965;-78
2021/04/03 01:26:20;;;;;;;26.48;4.22;;;4.50;91.90;;;;;;5076593;28;20036;-78
2021/04/03 01:29:06;;;;;;;31.63;4.65;;;4.50;92.30;;;;;;5078653;28;20040;-78
2021/04/03 01:31:33;;;;;;;28.88;4.90;;;4.40;92.10;;;;;;5040786;28;20417;-78
2021/04/03 01:34:00;;;;;;;28.95;5.82;;;4.40;92.40;;;;;;5077899;28;20695;-78
2021/04/03 01:36:31;;;;;;;27.25;5.75;;;4.40;92.60;;;;;;5073342;28;20119;-78
2021/04/03 01:39:01;;;;;;;27.58;5.53;;;4.40;92.60;;;;;;5075721;28;20119;-78
2021/04/03 01:41:30;;;;;;;28.95;4.93;;;4.30;92.50;;;;;;5071676;28;20047;-78
2021/04/03 01:43:59;;;;;;;25.02;4.90;;;4.30;92.80;;;;;;5075677;28;20115;-78
2021/04/03 01:46:28;;;;;;;31.10;5.22;;;4.20;92.60;;;;;;5086464;28;20135;-78
2021/04/03 01:48:57;;;;;;;40.40;5.97;;;4.20;92.70;;;;;;5073031;28;20040;-78
2021/04/03 01:51:24;;;;;;;30.35;5.82;;;4.20;92.90;;;;;;5079330;28;20052;-78
2021/04/03 01:53:51;;;;;;;34.63;6.43;;;4.10;92.90;;;;;;5057953;28;20059;-78
2021/04/03 01:56:20;;;;;;;31.20;6.28;;;4.10;93.00;;;;;;5073987;28;20074;-78
2021/04/03 01:58:48;;;;;;;31.70;5.75;;;4.10;93.30;;;;;;5073320;28;20036;-78
2021/04/03 02:01:15;;;;;;;34.33;6.32;;;4.10;93.30;;;;;;5077129;28;20049;-78
2021/04/03 02:03:43;;;;;;;33.08;5.97;;;4.10;93.60;;;;;;5070970;28;20037;-78
2021/04/03 02:06:10;;;;;;;42.05;5.95;;;4.10;93.60;;;;;;5072621;28;20043;-78
2021/04/03 02:08:36;;;;;;;36.97;6.32;;;4.20;93.50;;;;;;5076561;28;20123;-78
2021/04/03 02:11:04;;;;;;;34.70;5.88;;;4.20;93.60;;;;;;5079700;28;20123;-78
2021/04/03 02:13:31;;;;;;;32.70;5.00;;;4.20;93.40;;;;;;5068482;28;20044;-78
2021/04/03 02:16:02;;;;;;;35.95;6.30;;;4.20;93.60;;;;;;5083232;28;20057;-78
2021/04/03 02:18:33;;;;;;;38.78;5.25;;;4.20;93.60;;;;;;5073493;28;20056;-78
2021/04/03 02:21:04;;;;;;;38.00;5.93;;;4.20;93.80;;;;;;5073979;28;20041;-78
2021/04/03 02:23:35;;;;;;;31.67;5.60;;;4.20;93.70;;;;;;5070041;28;20449;-79
2021/04/03 02:26:04;;;;;;;33.10;6.05;;;4.20;93.80;;;;;;5077488;28;20053;-79
2021/04/03 02:28:31;;;;;;;43.10;6.55;;;4.20;94.00;;;;;;5067859;28;20131;-79
2021/04/03 02:30:57;;;;;;;38.55;6.72;;;4.30;93.90;;;;;;5075558;28;20044;-79
2021/04/03 02:33:23;;;;;;;30.70;5.35;;;4.40;94.00;;;;;;5075700;28;20111;-80
2021/04/03 02:35:49;;;;;;;33.95;6.93;;;4.30;93.90;;;;;;5076013;28;20059;-79
2021/04/03 02:38:16;;;;;;;41.50;7.72;;;4.20;93.90;;;;;;5063454;28;20101;-78
2021/04/03 02:40:43;;;;;;;40.63;6.10;;;4.30;94.10;;;;;;5079286;28;20488;-79
2021/04/03 02:43:35;;;;;;;41.80;6.85;;;4.30;94.10;;;;;;5079824;28;20060;-78
2021/04/03 02:46:18;;;;;;;43.08;6.63;;;4.30;94.20;;;;;;5066981;28;20115;-77
2021/04/03 02:48:50;;;;;;;45.20;6.55;;;4.30;94.20;;;;;;5072858;28;20028;-77
2021/04/03 02:51:25;;;;;;;45.58;7.47;;;4.30;94.20;;;;;;5071660;28;20048;-77
2021/04/03 02:53:51;;;;;;;;;;;4.30;94.20;;;;;;5081594;28;20428;-77
2021/04/03 02:56:20;;;;;;;45.75;6.70;;;4.30;95.10;;;;;;5066318;28;20006;-77
2021/04/03 02:58:47;;;;;;;38.55;6.60;;;4.30;94.60;;;;;;5074684;28;20042;-78
2021/04/03 03:01:14;;;;;;;33.63;5.72;;;4.40;94.70;;;;;;5070631;28;20060;-78
2021/04/03 03:03:41;;;;;;;40.63;7.60;;;4.40;94.60;;;;;;5073796;28;20586;-78
2021/04/03 03:06:09;;;;;;;48.13;7.15;;;4.50;94.70;;;;;;5070837;28;20032;-78
2021/04/03 03:08:36;;;;;;;47.78;8.38;;;4.50;94.60;;;;;;5083602;28;20032;-77
2021/04/03 03:11:03;;;;;;;43.33;7.78;;;4.50;94.60;;;;;;5067704;28;20127;-77
2021/04/03 03:13:33;;;;;;;46.60;7.78;;;4.50;94.60;;;;;;5072943;28;20135;-77
2021/04/03 03:16:03;;;;;;;41.13;6.40;;;4.60;94.70;;;;;;5075840;28;20108;-78
2021/04/03 03:18:30;;;;;;;44.80;6.78;;;4.70;94.80;;;;;;5074230;28;20086;-78
2021/04/03 03:20:58;;;;;;;44.75;7.22;;;4.70;95.00;;;;;;5074303;28;20479;-78
2021/04/03 03:23:25;;;;;;;56.40;8.60;;;4.80;95.10;;;;;;5073071;28;20105;-78
2021/04/03 03:25:54;;;;;;;50.63;8.27;;;4.80;94.80;;;;;;5072443;28;20082;-78
2021/04/03 03:28:20;;;;;;;55.72;10.55;;;4.80;94.90;;;;;;5082247;28;20028;-78
2021/04/03 03:30:46;;;;;;;47.20;7.95;;;4.90;94.90;;;;;;5069875;28;20043;-78
2021/04/03 03:33:12;;;;;;;50.60;8.52;;;4.90;94.80;;;;;;5074175;28;20044;-78
2021/04/03 03:35:38;;;;;;;49.38;9.45;;;5.00;94.90;;;;;;5086033;28;20052;-78
2021/04/03 03:38:04;;;;;;;44.95;7.47;;;5.00;95.00;;;;;;5078965;28;20069;-78
2021/04/03 03:40:31;;;;;;;50.58;8.55;;;5.10;95.00;;;;;;5075084;28;20037;-78
2021/04/03 03:42:57;;;;;;;47.10;8.45;;;5.10;95.00;;;;;;5070172;28;20049;-78
2021/04/03 03:45:23;;;;;;;54.58;9.45;;;5.20;94.80;;;;;;5074721;28;20048;-78
2021/04/03 03:47:49;;;;;;;52.97;9.68;;;5.20;94.80;;;;;;5070323;28;20376;-78
2021/04/03 03:50:15;;;;;;;50.42;8.65;;;5.30;94.80;;;;;;5074201;28;20373;-78
2021/04/03 03:52:40;;;;;;;45.05;8.35;;;5.30;94.80;;;;;;5067393;28;20059;-78
2021/04/03 03:55:07;;;;;;;55.92;9.65;;;5.30;94.70;;;;;;5084360;28;20032;-78
2021/04/03 03:57:34;;;;;;;51.88;8.20;;;5.30;94.70;;;;;;5072231;28;20041;-78
2021/04/03 04:00:00;;;;;;;37.55;7.85;;;5.30;94.50;;;;;;5074851;28;20055;-78
2021/04/03 04:02:26;;;;;;;46.25;7.15;;;5.40;94.70;;;;;;5069598;28;20496;-78
2021/04/03 04:04:52;;;;;;;43.08;8.52;;;5.40;94.70;;;;;;5076920;28;20134;-78
2021/04/03 04:07:18;;;;;;;52.42;10.02;;;5.50;95.00;;;;;;5075049;28;20036;-78
2021/04/03 04:09:44;;;;;;;54.95;9.27;;;5.50;94.70;;;;;;5078098;28;20524;-78
2021/04/03 04:12:10;;;;;;;54.28;8.48;;;5.50;94.70;;;;;;5078953;28;20033;-78
2021/04/03 04:14:36;;;;;;;46.55;9.68;;;5.50;94.60;;;;;;5081640;28;20059;-78
2021/04/03 04:17:03;;;;;;;44.30;8.00;;;5.50;94.60;;;;;;5076421;28;20032;-78
2021/04/03 04:19:29;;;;;;;52.78;7.97;;;5.50;94.60;;;;;;5066493;28;20032;-78
2021/04/03 04:21:55;;;;;;;46.33;8.05;;;5.60;94.60;;;;;;5080699;28;20039;-78
2021/04/03 04:24:21;;;;;;;40.20;7.75;;;5.70;94.60;;;;;;5069483;28;20464;-78
2021/04/03 04:26:47;;;;;;;45.55;7.85;;;5.60;94.80;;;;;;5080040;28;20075;-78
2021/04/03 04:29:13;;;;;;;57.65;8.57;;;5.60;94.70;;;;;;5068160;28;20043;-78
2021/04/03 04:31:39;;;;;;;55.92;8.88;;;5.60;94.70;;;;;;5072124;28;20041;-78
2021/04/03 04:34:05;;;;;;;51.65;9.40;;;5.70;94.70;;;;;;5071783;28;20372;-78
2021/04/03 04:36:31;;;;;;;47.25;8.57;;;5.70;94.70;;;;;;5083254;28;20056;-78
2021/04/03 04:38:57;;;;;;;46.47;7.75;;;5.70;94.70;;;;;;5074016;28;20460;-79
2021/04/03 04:41:23;;;;;;;46.42;7.75;;;5.70;94.60;;;;;;5082347;28;20040;-78
2021/04/03 04:43:50;;;;;;;50.58;9.00;;;5.70;94.70;;;;;;5066540;28;20612;-78
2021/04/03 04:46:16;;;;;;;40.38;7.22;;;5.70;94.70;;;;;;5071582;28;20033;-78
2021/04/03 04:48:42;;;;;;;50.60;9.02;;;5.70;94.70;;;;;;5067225;28;20052;-78
2021/04/03 04:51:07;;;;;;;43.90;8.13;;;5.70;94.60;;;;;;5057518;28;20093;-78
2021/04/03 04:53:33;;;;;;;48.42;9.13;;;5.70;94.80;;;;;;5077009;28;20496;-78
2021/04/03 04:55:59;;;;;;;42.58;7.65;;;5.70;94.70;;;;;;5073958;28;20055;-78
2021/04/03 04:58:27;;;;;;;46.63;8.60;;;5.60;94.70;;;;;;5084774;28;20054;-79
2021/04/03 05:00:52;;;;;;;45.28;8.10;;;5.70;94.70;;;;;;5073286;28;20371;-78
2021/04/03 05:03:18;;;;;;;49.05;7.72;;;5.70;94.70;;;;;;5078563;28;20037;-78
2021/04/03 05:05:44;;;;;;;40.80;7.82;;;5.70;94.80;;;;;;5078341;28;20052;-78
2021/04/03 05:08:10;;;;;;;52.55;7.88;;;5.70;94.80;;;;;;5085334;28;20117;-78
2021/04/03 05:10:35;;;;;;;45.03;7.82;;;5.60;94.70;;;;;;5072598;28;20050;-78
2021/04/03 05:13:02;;;;;;;44.50;7.78;;;5.70;94.80;;;;;;5079805;28;20042;-78
2021/04/03 05:15:29;;;;;;;42.05;7.72;;;5.70;94.70;;;;;;5078082;28;20072;-78
2021/04/03 05:17:55;;;;;;;45.67;8.95;;;5.60;94.70;;;;;;5079394;28;20043;-78
2021/04/03 05:20:21;;;;;;;44.63;8.90;;;5.60;94.80;;;;;;5075801;28;20028;-78
2021/04/03 05:22:47;;;;;;;50.97;9.95;;;5.70;94.70;;;;;;5077909;28;20105;-78
2021/04/03 05:25:13;;;;;;;47.90;8.82;;;5.60;95.00;;;;;;5071950;28;20380;-78
2021/04/03 05:27:40;;;;;;;42.70;8.20;;;5.60;94.70;;;;;;5076728;28;20036;-78
2021/04/03 05:30:08;;;;;;;48.08;10.43;;;5.70;94.80;;;;;;5078581;28;20115;-78
2021/04/03 05:32:34;;;;;;;48.20;9.07;;;5.70;94.70;;;;;;5071690;28;20056;-78
2021/04/03 05:35:00;;;;;;;43.00;8.10;;;5.70;94.70;;;;;;5076947;28;20044;-78
2021/04/03 05:37:26;;;;;;;54.40;8.85;;;5.70;94.70;;;;;;5081604;28;20052;-79
2021/04/03 05:39:52;;;;;;;54.88;9.68;;;5.70;94.70;;;;;;5082428;28;20032;-79
2021/04/03 05:42:19;;;;;;;44.78;8.10;;;5.70;94.60;;;;;;5073420;28;20058;-79
2021/04/03 05:44:46;;;;;;;59.17;8.55;;;5.70;94.70;;;;;;5074478;28;20493;-79
2021/04/03 05:47:13;;;;;;;43.05;8.40;;;5.80;94.60;;;;;;5071895;28;20040;-78
2021/04/03 05:49:43;;;;;;;44.90;7.72;;;5.80;94.60;;;;;;5081563;28;20028;-79
2021/04/03 05:52:09;;;;;;;43.78;8.45;;;5.80;94.60;;;;;;5070850;28;20058;-79
2021/04/03 05:54:36;;;;;;;44.28;8.70;;;5.90;94.60;;;;;;5076048;28;20481;-79
2021/04/03 05:57:06;;;;;;;45.03;7.38;;;5.90;94.60;;;;;;5075888;28;20374;-78
2021/04/03 05:59:35;;;;;;;43.60;7.68;;;5.90;94.50;;;;;;5076476;28;20063;-79
2021/04/03 06:02:04;;;;;;;51.25;8.40;;;6.00;94.50;;;;;;5074891;28;20180;-79
2021/04/03 06:04:30;;;;;;;46.80;8.05;;;6.00;94.40;;;;;;5077323;28;20464;-79
2021/04/03 06:06:56;;;;;;;48.58;8.60;;;6.00;94.50;;;;;;5077727;28;20121;-79
2021/04/03 06:09:21;;;;;;;38.85;7.70;;;6.10;94.40;;;;;;5081042;28;20055;-79
2021/04/03 06:11:49;;;;;;;51.78;9.18;;;6.10;94.40;;;;;;5079509;28;20038;-78
2021/04/03 06:14:17;;;;;;;49.53;8.90;;;6.10;94.40;;;;;;5075284;28;20048;-78
2021/04/03 06:16:45;;;;;;;44.40;8.25;;;6.20;94.40;;;;;;5084091;28;20032;-79
2021/04/03 06:19:25;;;;;;;49.95;9.25;;;6.20;94.30;;;;;;5080421;28;20047;-79
2021/04/03 06:21:55;;;;;;;38.85;7.78;;;6.20;94.10;;;;;;5094232;28;20048;-79
2021/04/03 06:24:35;;;;;;;35.85;6.75;;;6.30;94.10;;;;;;5075168;28;20453;-79
2021/04/03 06:27:07;;;;;;;40.75;7.15;;;6.30;94.00;;;;;;5083560;28;20090;-78
2021/04/03 06:29:41;;;;;;;40.00;7.28;;;6.30;93.90;;;;;;5081214;28;20055;-79
2021/04/03 06:32:30;;;;;;;41.88;7.70;;;6.40;93.80;;;;;;5079124;28;20060;-79
2021/04/03 06:34:57;;;;;;;43.13;8.48;;;6.40;93.80;;;;;;5070187;28;20059;-78
2021/04/03 06:37:34;;;;;;;34.55;7.95;;;6.50;93.80;;;;;;5076048;28;20047;-78
2021/04/03 06:40:08;;;;;;;43.25;7.90;;;6.50;93.70;;;;;;5082279;28;20051;-78
2021/04/03 06:42:38;;;;;;;37.70;6.78;;;6.60;93.60;;;;;;5081661;28;20044;-78
2021/04/03 06:45:26;;;;;;;39.83;8.00;;;6.70;93.20;;;;;;5072840;28;20036;-79
2021/04/03 06:47:54;;;;;;;38.42;7.00;;;6.70;93.10;;;;;;5076384;28;20048;-79
2021/04/03 06:50:22;;;;;;;30.08;5.40;;;6.80;92.60;;;;;;5079876;28;20032;-77
2021/04/03 06:52:48;;;;;;;43.65;6.40;;;6.80;92.30;;;;;;5074840;28;20495;-78
2021/04/03 06:55:18;;;;;;;39.55;6.82;;;6.90;92.40;;;;;;5066365;28;20037;-79
2021/04/03 06:57:46;;;;;;;32.72;6.65;;;6.90;92.10;;;;;;5074374;28;20055;-79
2021/04/03 07:00:15;;;;;;;38.30;7.68;;;6.90;92.10;;;;;;5070774;28;20051;-78
2021/04/03 07:03:03;;;;;;;30.70;6.55;;;6.90;91.70;;;;;;5073962;28;20054;-78
2021/04/03 07:05:34;;;;;;;35.30;7.22;;;7.00;91.80;;;;;;5077082;28;20036;-78
2021/04/03 07:08:02;;;;;;;34.38;8.02;;;7.00;91.70;;;;;;5072070;28;20082;-79
2021/04/03 07:10:29;;;;;;;37.90;7.15;;;7.10;91.30;;;;;;5070876;28;20064;-78
2021/04/03 07:12:56;;;;;;;30.60;7.65;;;7.00;91.40;;;;;;5083975;28;20036;-78
2021/04/03 07:15:24;;;;;;;34.95;7.13;;;7.10;91.20;;;;;;5068529;28;20102;-78
2021/04/03 07:17:50;;;;;;;28.95;6.25;;;7.20;91.20;;;;;;5074279;28;20070;-78
2021/04/03 07:20:21;;;;;;;38.58;6.18;;;7.20;91.70;;;;;;5070585;28;20514;-78
2021/04/03 07:22:54;;;;;;;30.65;5.85;;;7.40;91.20;;;;;;5079763;28;20135;-78
2021/04/03 07:25:22;;;;;;;36.20;5.65;;;7.40;90.90;;;;;;5072028;28;20036;-78
2021/04/03 07:27:49;;;;;;;28.27;5.45;;;7.50;90.40;;;;;;5074652;28;20094;-77
2021/04/03 07:30:34;;;;;;;37.63;9.55;;;7.50;90.20;;;;;;5081593;28;20366;-78
2021/04/03 07:33:18;;;;;;;40.50;7.35;;;7.60;89.80;;;;;;5081400;28;20432;-78
2021/04/03 07:35:49;;;;;;;31.17;6.68;;;7.60;90.00;;;;;;5076422;28;20406;-78
2021/04/03 07:38:24;;;;;;;38.83;7.32;;;7.70;90.10;;;;;;5083623;28;20037;-78
2021/04/03 07:40:51;;;;;;;37.38;7.40;;;7.70;90.00;;;;;;5082679;28;20036;-79
2021/04/03 07:43:30;;;;;;;36.38;8.60;;;7.80;89.10;;;;;;5076367;28;20530;-79
2021/04/03 07:46:06;;;;;;;35.42;7.63;;;7.80;89.00;;;;;;5075963;28;20063;-79
2021/04/03 07:48:38;;;;;;;41.65;9.40;;;8.00;89.20;;;;;;5092723;28;20056;-79
2021/04/03 07:51:09;;;;;;;37.60;6.72;;;8.10;88.30;;;;;;5080139;28;20154;-79
2021/04/03 07:53:38;;;;;;;36.80;6.22;;;8.00;87.60;;;;;;5076886;28;20051;-78
2021/04/03 07:56:05;;;;;;;41.00;9.35;;;8.00;87.50;;;;;;5078513;28;20032;-79
2021/04/03 07:58:52;;;;;;;39.63;8.27;;;8.00;87.80;;;;;;5082209;28;20445;-79
2021/04/03 08:01:21;;;;;;;31.85;6.95;;;8.20;88.30;;;;;;5078871;28;20040;-78
2021/04/03 08:04:12;;;;;;;28.27;5.88;;;8.30;86.20;;;;;;5080985;28;20053;-79
2021/04/03 08:06:40;;;;;;;35.97;7.10;;;8.30;84.40;;;;;;5069434;28;20052;-78
2021/04/03 08:09:14;;;;;;;30.42;6.03;;;8.20;85.80;;;;;;5074471;28;20094;-78
2021/04/03 08:11:42;;;;;;;29.73;6.00;;;8.10;86.20;;;;;;5077695;28;20068;-78
2021/04/03 08:14:14;;;;;;;30.92;7.13;;;8.30;85.40;;;;;;5077304;28;20067;-79
2021/04/03 08:16:41;;;;;;;34.08;6.28;;;8.60;85.10;;;;;;5071971;28;20040;-79
2021/04/03 08:19:07;;;;;;;34.85;6.18;;;9.10;84.20;;;;;;5070190;28;20033;-78
2021/04/03 08:21:45;;;;;;;32.13;6.43;;;9.60;82.20;;;;;;5075721;28;20044;-77
2021/04/03 08:24:11;;;;;;;25.35;6.50;;;9.90;81.00;;;;;;5074401;28;20492;-77
2021/04/03 08:26:42;;;;;;;30.92;6.47;;;10.10;79.00;;;;;;5085024;28;20484;-78
2021/04/03 08:29:32;;;;;;;26.45;5.55;;;10.00;77.80;;;;;;5073133;28;20040;-76
2021/04/03 08:32:00;;;;;;;36.17;13.88;;;9.70;78.10;;;;;;5088318;28;20045;-76
2021/04/03 08:34:26;;;;;;;38.25;7.40;;;9.60;78.90;;;;;;5085807;28;20486;-77
2021/04/03 08:36:53;;;;;;;30.30;6.22;;;9.60;79.00;;;;;;5086543;28;20632;-78
2021/04/03 08:39:20;;;;;;;30.73;5.97;;;9.80;79.20;;;;;;5074573;28;20044;-78
2021/04/03 08:41:49;;;;;;;30.60;6.50;;;10.00;77.70;;;;;;5075328;28;20085;-78
2021/04/03 08:44:17;;;;;;;28.90;6.47;;;10.10;77.50;;;;;;5073356;28;20040;-78
2021/04/03 08:46:45;;;;;;;30.20;6.32;;;10.30;77.30;;;;;;5063198;28;20045;-78
2021/04/03 08:49:11;;;;;;;25.30;4.38;;;10.50;76.90;;;;;;5055925;28;20048;-78
2021/04/03 08:51:38;;;;;;;26.27;5.65;;;10.70;74.80;;;;;;5088834;28;20127;-78
2021/04/03 08:54:04;;;;;;;26.42;5.65;;;10.70;74.20;;;;;;5074116;28;20032;-78
2021/04/03 08:56:33;;;;;;;27.88;6.03;;;10.70;75.10;;;;;;5077951;28;20038;-77
2021/04/03 08:59:00;;;;;;;27.70;5.15;;;10.70;74.40;;;;;;5071047;28;20052;-78
2021/04/03 09:01:31;;;;;;;28.80;5.82;;;10.80;74.90;;;;;;5076653;28;20115;-80
2021/04/03 09:04:06;;;;;;;28.70;6.13;;;10.90;74.30;;;;;;5074066;28;20048;-77
2021/04/03 09:06:52;;;;;;;30.80;5.53;;;10.70;73.50;;;;;;5073266;28;20131;-76
2021/04/03 09:09:19;;;;;;;25.67;5.53;;;10.40;73.10;;;;;;5074470;28;20127;-77
2021/04/03 09:12:05;;;;;;;27.65;9.05;;;10.50;75.10;;;;;;5087634;28;20404;-77
2021/04/03 09:14:36;;;;;;;24.15;5.65;;;10.50;70.20;;;;;;5072992;28;20061;-77
2021/04/03 09:17:16;;;;;;;25.85;5.07;;;10.50;72.80;;;;;;5081157;28;20119;-78
2021/04/03 09:19:42;;;;;;;22.02;5.50;;;10.60;72.00;;;;;;5073010;28;20729;-78
2021/04/03 09:22:13;;;;;;;21.92;5.30;;;10.60;72.00;;;;;;5077501;28;20097;-77
2021/04/03 09:24:57;;;;;;;33.70;6.13;;;10.60;72.30;;;;;;5077809;28;20123;-78
2021/04/03 09:27:25;;;;;;;24.73;5.35;;;10.80;73.60;;;;;;5067824;28;20040;-78
2021/04/03 09:30:07;;;;;;;30.77;6.28;;;11.10;72.60;;;;;;5073487;28;20722;-77
2021/04/03 09:32:49;;;;;;;22.50;4.93;;;11.20;72.10;;;;;;5076522;28;20078;-78
2021/04/03 09:35:27;;;;;;;24.02;5.35;;;10.80;70.50;;;;;;5075085;28;20106;-76
2021/04/03 09:38:00;;;;;;;23.50;5.25;;;10.50;70.50;;;;;;5078081;28;20048;-76
2021/04/03 09:40:43;;;;;;;29.38;5.43;;;10.50;71.80;;;;;;5067305;28;20396;-76
2021/04/03 09:43:11;;;;;;;26.88;5.10;;;10.70;71.70;;;;;;5078733;28;20036;-76
2021/04/03 09:45:37;;;;;;;22.13;4.72;;;10.90;71.60;;;;;;5076102;28;20464;-76
2021/04/03 09:48:08;;;;;;;20.85;4.70;;;10.80;70.30;;;;;;5078831;28;20036;-76
2021/04/03 09:50:34;;;;;;;20.40;4.75;;;10.90;70.00;;;;;;5071980;28;20032;-76
2021/04/03 09:53:13;;;;;;;21.45;4.28;;;11.10;70.30;;;;;;5081021;28;20028;-76
2021/04/03 09:55:39;;;;;;;21.58;5.03;;;11.30;69.00;;;;;;5075633;28;20048;-76
2021/04/03 09:58:05;;;;;;;22.67;5.43;;;11.30;68.50;;;;;;5077933;28;20381;-77
2021/04/03 10:00:32;;;;;;;25.67;5.15;;;11.40;68.00;;;;;;5075813;28;20056;-77
2021/04/03 10:02:59;;;;;;;23.50;5.68;;;11.50;68.80;;;;;;5076861;28;20052;-76
2021/04/03 10:05:25;;;;;;;25.02;4.45;;;11.40;68.60;;;;;;5084476;28;20050;-77
2021/04/03 10:07:51;;;;;;;27.60;4.65;;;11.30;69.20;;;;;;5071876;28;20464;-76
2021/04/03 10:10:17;;;;;;;27.45;5.13;;;11.00;68.70;;;;;;5078611;28;20047;-75
2021/04/03 10:12:42;;;;;;;19.95;4.78;;;10.90;69.30;;;;;;5067484;28;20067;-76
2021/04/03 10:15:09;;;;;;;23.73;4.65;;;10.90;69.80;;;;;;5074976;28;20415;-78
2021/04/03 10:17:35;;;;;;;21.42;4.68;;;11.00;69.20;;;;;;5076493;28;20035;-76
2021/04/03 10:20:03;;;;;;;22.25;4.95;;;11.00;68.80;;;;;;5081465;28;20110;-78
2021/04/03 10:22:28;;;;;;;19.90;4.55;;;11.10;69.10;;;;;;5070429;28;20051;-78
2021/04/03 10:24:54;;;;;;;22.10;4.50;;;11.10;67.30;;;;;;5075940;28;20131;-77
2021/04/03 10:27:20;;;;;;;23.52;4.60;;;11.00;66.50;;;;;;5080044;28;20482;-78
2021/04/03 10:29:46;;;;;;;22.38;4.70;;;11.00;67.30;;;;;;5084414;28;20109;-77
2021/04/03 10:32:12;;;;;;;16.63;4.07;;;11.10;66.00;;;;;;5068433;28;20040;-78
2021/04/03 10:34:38;;;;;;;21.52;4.70;;;11.10;66.30;;;;;;5079739;28;20032;-79
2021/04/03 10:37:03;;;;;;;18.73;4.45;;;11.10;65.00;;;;;;5073112;28;20040;-77
2021/04/03 10:39:29;;;;;;;24.13;4.70;;;11.10;66.70;;;;;;5076914;28;20170;-77
2021/04/03 10:41:55;;;;;;;23.52;4.55;;;11.30;67.40;;;;;;5080284;28;20490;-76
2021/04/03 10:44:21;;;;;;;22.20;4.80;;;11.30;66.40;;;;;;5079599;28;20516;-76
2021/04/03 10:46:47;;;;;;;17.02;4.38;;;11.30;65.70;;;;;;5074762;28;20182;-75
2021/04/03 10:49:12;;;;;;;15.75;4.25;;;11.20;66.00;;;;;;5068823;28;20400;-75
2021/04/03 10:51:38;;;;;;;20.88;3.65;;;11.20;66.10;;;;;;5080231;28;20147;-76
2021/04/03 10:54:04;;;;;;;18.85;3.83;;;11.10;65.90;;;;;;5065395;28;20040;-76
2021/04/03 10:56:30;;;;;;;17.83;4.13;;;11.10;65.70;;;;;;5075493;28;20058;-76
2021/04/03 10:58:57;;;;;;;17.25;4.13;;;11.20;65.50;;;;;;5067982;28;20066;-78
2021/04/03 11:01:23;;;;;;;25.13;5.40;;;11.20;65.80;;;;;;5088456;28;20048;-77
2021/04/03 11:03:49;;;;;;;22.90;5.03;;;11.10;66.30;;;;;;5069140;28;20044;-77
2021/04/03 11:06:15;;;;;;;25.30;6.35;;;11.20;66.40;;;;;;5077456;28;20175;-77
2021/04/03 11:08:41;;;;;;;21.20;4.97;;;11.30;67.30;;;;;;5077479;28;20123;-77
2021/04/03 11:11:08;;;;;;;20.38;4.85;;;11.40;66.80;;;;;;5083970;28;20132;-77
2021/04/03 11:13:34;;;;;;;20.95;4.88;;;11.50;66.50;;;;;;5080526;28;20109;-77
2021/04/03 11:16:00;;;;;;;17.17;4.53;;;11.40;65.50;;;;;;5074852;28;20054;-77
2021/04/03 11:18:26;;;;;;;19.23;4.18;;;11.40;65.40;;;;;;5085859;28;20040;-76
2021/04/03 11:20:52;;;;;;;18.85;4.35;;;11.10;64.30;;;;;;5078795;28;20063;-77
2021/04/03 11:23:17;;;;;;;23.02;4.45;;;11.00;65.50;;;;;;5072082;28;20089;-76
2021/04/03 11:25:45;;;;;;;20.85;4.30;;;11.00;66.80;;;;;;5070573;28;20481;-76
2021/04/03 11:28:11;;;;;;;22.13;4.75;;;11.10;67.00;;;;;;5087209;28;20055;-77
2021/04/03 11:30:37;;;;;;;23.40;3.70;;;11.10;66.50;;;;;;5067258;28;20389;-76
2021/04/03 11:33:02;;;;;;;18.13;3.83;;;11.00;65.50;;;;;;5079388;28;20072;-78
2021/04/03 11:35:29;;;;;;;19.38;4.85;;;10.90;65.60;;;;;;5070798;28;20067;-78
2021/04/03 11:37:55;;;;;;;19.35;4.10;;;11.00;66.30;;;;;;5096425;28;20052;-77
2021/04/03 11:40:21;;;;;;;24.35;4.75;;;11.20;66.80;;;;;;5065933;28;20612;-77
2021/04/03 11:42:52;;;;;;;17.83;3.90;;;11.30;65.50;;;;;;5071876;28;20448;-77
2021/04/03 11:45:20;;;;;;;15.68;4.35;;;11.30;64.40;;;;;;5068467;28;20086;-77
2021/04/03 11:47:46;;;;;;;21.20;5.07;;;11.20;63.90;;;;;;5070749;28;20685;-77
2021/04/03 11:50:13;;;;;;;17.77;3.83;;;11.10;64.70;;;;;;5073985;28;21197;-77
2021/04/03 11:52:38;;;;;;;16.17;3.10;;;11.20;65.00;;;;;;5082324;28;20063;-77
2021/04/03 11:55:07;;;;;;;18.58;3.72;;;11.30;62.60;;;;;;5075100;28;20028;-77
2021/04/03 11:57:33;;;;;;;21.52;4.13;;;11.20;62.20;;;;;;5075301;28;20166;-77
2021/04/03 11:59:59;;;;;;;19.58;3.55;;;11.20;62.90;;;;;;5075162;28;20471;-77
2021/04/03 12:02:24;;;;;;;18.23;4.22;;;11.30;63.40;;;;;;5065945;28;20033;-77
2021/04/03 12:04:51;;;;;;;14.57;3.50;;;11.40;63.50;;;;;;5073866;28;20056;-77
2021/04/03 12:07:16;;;;;;;18.95;4.57;;;11.30;62.30;;;;;;5068085;28;20036;-77
2021/04/03 12:09:43;;;;;;;17.15;3.88;;;11.20;62.50;;;;;;5073120;28;20594;-77
2021/04/03 12:12:09;;;;;;;15.65;4.05;;;11.20;62.50;;;;;;5073475;28;20036;-77
2021/04/03 12:14:35;;;;;;;18.05;3.83;;;11.10;62.80;;;;;;5069492;28;20052;-77
2021/04/03 12:17:01;;;;;;;21.95;4.32;;;10.90;63.60;;;;;;5071881;28;20072;-77
2021/04/03 12:19:27;;;;;;;18.20;3.67;;;11.10;64.70;;;;;;5076882;28;20049;-77
2021/04/03 12:21:53;;;;;;;17.80;4.10;;;11.20;63.60;;;;;;5067936;28;20476;-76
2021/04/03 12:24:19;;;;;;;14.05;3.38;;;11.00;62.20;;;;;;5068138;28;20036;-77
2021/04/03 12:26:45;;;;;;;17.52;4.22;;;11.10;62.20;;;;;;5068417;28;20047;-76
2021/04/03 12:29:10;;;;;;;16.33;3.85;;;11.10;61.80;;;;;;5071984;28;20364;-76
2021/04/03 12:31:36;;;;;;;24.35;5.45;;;11.00;61.70;;;;;;5066686;28;20431;-76
2021/04/03 12:34:02;;;;;;;17.92;3.60;;;11.00;63.40;;;;;;5070455;28;21469;-76
2021/04/03 12:36:29;;;;;;;18.80;3.67;;;11.00;63.70;;;;;;5074579;28;20415;-76
2021/04/03 12:38:55;;;;;;;25.65;3.80;;;11.00;64.10;;;;;;5064669;28;20037;-77
2021/04/03 12:41:21;;;;;;;19.48;3.45;;;11.20;62.90;;;;;;5075250;28;20063;-76
2021/04/03 12:43:46;;;;;;;18.23;3.55;;;11.00;62.30;;;;;;5071720;28;20037;-76
2021/04/03 12:46:12;;;;;;;18.67;4.18;;;11.00;63.10;;;;;;5069800;28;20086;-76
2021/04/03 12:48:38;;;;;;;19.63;4.65;;;11.00;63.60;;;;;;5076621;28;20048;-76
2021/04/03 12:51:05;;;;;;;19.30;4.80;;;10.80;63.50;;;;;;5075685;28;20051;-76